sensor_id;sensor_type;location;lat;lon;timestamp;P1;durP1;ratioP1;P2;durP2;ratioP2
3841;SDS011;1936;47.074;15.336;2022-10-22T00:01:41;19.47;;;17.27;;
3841;SDS011;1936;47.074;15.336;2022-10-22T00:03:45;23.40;;;17.40;;
3841;SDS011;1936;47.074;15.336;2022-10-22T00:05:49;22.33;;;16.60;;
3841;SDS011;1936;47.074;15.336;2022-10-22T00:07:52;25.20;;;19.07;;
3841;SDS011;1936;47.074;15.336;2022-10-22T00:09:56;30.90;;;18.37;;
3841;SDS011;1936;47.074;15.336;2022-10-22T00:12:00;20.13;;;18.03;;
3841;SDS011;1936;47.074;15.336;2022-10-22T00:14:03;33.80;;;18.57;;
3841;SDS011;1936;47.074;15.336;2022-10-22T00:16:07;24.20;;;17.70;;
3841;SDS011;1936;47.074;15.336;2022-10-22T00:18:11;32.30;;;17.70;;
3841;SDS011;1936;47.074;15.336;2022-10-22T00:20:14;19.17;;;17.17;;
3841;SDS011;1936;47.074;15.336;2022-10-22T00:22:17;19.93;;;17.10;;
3841;SDS011;1936;47.074;15.336;2022-10-22T00:24:21;24.17;;;17.40;;
3841;SDS011;1936;47.074;15.336;2022-10-22T00:26:25;21.40;;;16.30;;
3841;SDS011;1936;47.074;15.336;2022-10-22T00:28:29;23.23;;;16.77;;
3841;SDS011;1936;47.074;15.336;2022-10-22T00:30:32;24.77;;;18.00;;
3841;SDS011;1936;47.074;15.336;2022-10-22T00:32:35;19.90;;;17.23;;
3841;SDS011;1936;47.074;15.336;2022-10-22T00:34:39;20.30;;;15.63;;
3841;SDS011;1936;47.074;15.336;2022-10-22T00:36:42;22.53;;;18.63;;
3841;SDS011;1936;47.074;15.336;2022-10-22T00:38:48;20.00;;;16.30;;
3841;SDS011;1936;47.074;15.336;2022-10-22T00:40:51;23.83;;;17.63;;
3841;SDS011;1936;47.074;15.336;2022-10-22T00:42:56;26.43;;;18.10;;
3841;SDS011;1936;47.074;15.336;2022-10-22T00:47:19;22.73;;;19.03;;
3841;SDS011;1936;47.074;15.336;2022-10-22T00:49:24;21.43;;;18.83;;
3841;SDS011;1936;47.074;15.336;2022-10-22T00:51:29;23.50;;;17.50;;
3841;SDS011;1936;47.074;15.336;2022-10-22T00:53:36;18.57;;;16.57;;
3841;SDS011;1936;47.074;15.336;2022-10-22T00:55:41;21.93;;;16.50;;
3841;SDS011;1936;47.074;15.336;2022-10-22T00:57:46;20.53;;;17.27;;
3841;SDS011;1936;47.074;15.336;2022-10-22T00:59:54;22.83;;;17.40;;
3841;SDS011;1936;47.074;15.336;2022-10-22T01:01:59;20.90;;;15.70;;
3841;SDS011;1936;47.074;15.336;2022-10-22T01:04:02;20.23;;;17.87;;
3841;SDS011;1936;47.074;15.336;2022-10-22T01:06:06;23.60;;;16.30;;
3841;SDS011;1936;47.074;15.336;2022-10-22T01:08:11;17.90;;;15.40;;
3841;SDS011;1936;47.074;15.336;2022-10-22T01:10:25;26.73;;;15.40;;
3841;SDS011;1936;47.074;15.336;2022-10-22T01:12:36;30.77;;;15.27;;
3841;SDS011;1936;47.074;15.336;2022-10-22T01:14:51;16.50;;;14.40;;
3841;SDS011;1936;47.074;15.336;2022-10-22T01:17:08;27.47;;;14.97;;
3841;SDS011;1936;47.074;15.336;2022-10-22T01:21:45;20.07;;;14.87;;
3841;SDS011;1936;47.074;15.336;2022-10-22T01:24:10;17.40;;;13.83;;
3841;SDS011;1936;47.074;15.336;2022-10-22T01:26:22;19.13;;;13.80;;
3841;SDS011;1936;47.074;15.336;2022-10-22T01:28:43;25.23;;;14.63;;
3841;SDS011;1936;47.074;15.336;2022-10-22T01:30:55;18.50;;;15.13;;
3841;SDS011;1936;47.074;15.336;2022-10-22T01:33:02;22.23;;;14.17;;
3841;SDS011;1936;47.074;15.336;2022-10-22T01:35:08;28.93;;;14.20;;
3841;SDS011;1936;47.074;15.336;2022-10-22T01:37:14;17.60;;;14.43;;
3841;SDS011;1936;47.074;15.336;2022-10-22T01:39:18;17.43;;;14.13;;
3841;SDS011;1936;47.074;15.336;2022-10-22T01:41:23;20.43;;;14.77;;
3841;SDS011;1936;47.074;15.336;2022-10-22T01:43:28;22.20;;;14.90;;
3841;SDS011;1936;47.074;15.336;2022-10-22T01:45:33;18.73;;;14.70;;
3841;SDS011;1936;47.074;15.336;2022-10-22T01:47:41;19.43;;;15.50;;
3841;SDS011;1936;47.074;15.336;2022-10-22T01:50:03;15.30;;;13.67;;
3841;SDS011;1936;47.074;15.336;2022-10-22T01:52:11;19.20;;;14.00;;
3841;SDS011;1936;47.074;15.336;2022-10-22T01:54:20;16.10;;;13.73;;
3841;SDS011;1936;47.074;15.336;2022-10-22T01:56:35;18.70;;;15.33;;
3841;SDS011;1936;47.074;15.336;2022-10-22T01:58:50;16.57;;;13.77;;
3841;SDS011;1936;47.074;15.336;2022-10-22T02:00:59;14.77;;;12.10;;
3841;SDS011;1936;47.074;15.336;2022-10-22T02:03:08;14.03;;;12.50;;
3841;SDS011;1936;47.074;15.336;2022-10-22T02:05:20;14.60;;;13.03;;
3841;SDS011;1936;47.074;15.336;2022-10-22T02:07:30;20.77;;;14.73;;
3841;SDS011;1936;47.074;15.336;2022-10-22T02:09:34;19.67;;;14.00;;
3841;SDS011;1936;47.074;15.336;2022-10-22T02:11:39;21.03;;;13.70;;
3841;SDS011;1936;47.074;15.336;2022-10-22T02:13:43;24.97;;;16.47;;
3841;SDS011;1936;47.074;15.336;2022-10-22T02:15:50;14.33;;;12.87;;
3841;SDS011;1936;47.074;15.336;2022-10-22T02:17:56;26.83;;;14.20;;
3841;SDS011;1936;47.074;15.336;2022-10-22T02:20:02;25.97;;;14.50;;
3841;SDS011;1936;47.074;15.336;2022-10-22T02:22:09;22.93;;;14.10;;
3841;SDS011;1936;47.074;15.336;2022-10-22T02:24:13;14.77;;;12.83;;
3841;SDS011;1936;47.074;15.336;2022-10-22T02:26:18;21.87;;;13.60;;
3841;SDS011;1936;47.074;15.336;2022-10-22T02:28:26;19.97;;;14.93;;
3841;SDS011;1936;47.074;15.336;2022-10-22T02:30:34;19.77;;;14.40;;
3841;SDS011;1936;47.074;15.336;2022-10-22T02:32:38;16.30;;;13.77;;
3841;SDS011;1936;47.074;15.336;2022-10-22T02:34:47;20.07;;;16.00;;
3841;SDS011;1936;47.074;15.336;2022-10-22T02:36:51;16.37;;;14.60;;
3841;SDS011;1936;47.074;15.336;2022-10-22T02:38:56;26.87;;;14.53;;
3841;SDS011;1936;47.074;15.336;2022-10-22T02:41:01;22.90;;;16.27;;
3841;SDS011;1936;47.074;15.336;2022-10-22T02:43:05;19.60;;;15.87;;
3841;SDS011;1936;47.074;15.336;2022-10-22T02:45:09;20.37;;;15.10;;
3841;SDS011;1936;47.074;15.336;2022-10-22T02:47:12;17.80;;;15.07;;
3841;SDS011;1936;47.074;15.336;2022-10-22T02:49:16;15.27;;;12.53;;
3841;SDS011;1936;47.074;15.336;2022-10-22T02:51:20;21.90;;;13.30;;
3841;SDS011;1936;47.074;15.336;2022-10-22T02:53:27;15.52;;;13.90;;
3841;SDS011;1936;47.074;15.336;2022-10-22T02:55:30;17.87;;;14.30;;
3841;SDS011;1936;47.074;15.336;2022-10-22T02:57:33;28.17;;;16.77;;
3841;SDS011;1936;47.074;15.336;2022-10-22T02:59:36;35.63;;;20.33;;
3841;SDS011;1936;47.074;15.336;2022-10-22T03:01:40;25.27;;;18.97;;
3841;SDS011;1936;47.074;15.336;2022-10-22T03:03:43;22.90;;;17.30;;
3841;SDS011;1936;47.074;15.336;2022-10-22T03:05:46;19.67;;;16.00;;
3841;SDS011;1936;47.074;15.336;2022-10-22T03:07:52;23.70;;;16.63;;
3841;SDS011;1936;47.074;15.336;2022-10-22T03:09:56;21.60;;;17.57;;
3841;SDS011;1936;47.074;15.336;2022-10-22T03:11:59;21.03;;;17.10;;
3841;SDS011;1936;47.074;15.336;2022-10-22T03:14:02;19.50;;;17.50;;
3841;SDS011;1936;47.074;15.336;2022-10-22T03:16:06;19.07;;;14.63;;
3841;SDS011;1936;47.074;15.336;2022-10-22T03:18:09;23.37;;;17.00;;
3841;SDS011;1936;47.074;15.336;2022-10-22T03:20:12;21.30;;;16.27;;
3841;SDS011;1936;47.074;15.336;2022-10-22T03:22:16;18.20;;;14.80;;
3841;SDS011;1936;47.074;15.336;2022-10-22T03:24:26;18.80;;;15.47;;
3841;SDS011;1936;47.074;15.336;2022-10-22T03:26:32;19.93;;;15.70;;
3841;SDS011;1936;47.074;15.336;2022-10-22T03:28:36;26.03;;;17.13;;
3841;SDS011;1936;47.074;15.336;2022-10-22T03:30:41;22.63;;;16.90;;
3841;SDS011;1936;47.074;15.336;2022-10-22T03:32:44;22.40;;;16.07;;
3841;SDS011;1936;47.074;15.336;2022-10-22T03:34:47;19.47;;;14.00;;
3841;SDS011;1936;47.074;15.336;2022-10-22T03:36:51;19.43;;;14.73;;
3841;SDS011;1936;47.074;15.336;2022-10-22T03:38:55;16.53;;;14.67;;
3841;SDS011;1936;47.074;15.336;2022-10-22T03:40:59;21.97;;;16.23;;
3841;SDS011;1936;47.074;15.336;2022-10-22T03:43:03;23.37;;;14.43;;
3841;SDS011;1936;47.074;15.336;2022-10-22T03:45:06;24.93;;;13.50;;
3841;SDS011;1936;47.074;15.336;2022-10-22T03:47:10;19.67;;;15.07;;
3841;SDS011;1936;47.074;15.336;2022-10-22T03:49:15;21.90;;;14.33;;
3841;SDS011;1936;47.074;15.336;2022-10-22T03:51:19;20.20;;;16.50;;
3841;SDS011;1936;47.074;15.336;2022-10-22T03:53:22;17.07;;;14.30;;
3841;SDS011;1936;47.074;15.336;2022-10-22T03:55:25;21.60;;;15.10;;
3841;SDS011;1936;47.074;15.336;2022-10-22T03:57:30;19.00;;;15.80;;
3841;SDS011;1936;47.074;15.336;2022-10-22T03:59:34;17.87;;;15.10;;
3841;SDS011;1936;47.074;15.336;2022-10-22T04:01:37;22.30;;;15.30;;
3841;SDS011;1936;47.074;15.336;2022-10-22T04:03:40;21.80;;;15.27;;
3841;SDS011;1936;47.074;15.336;2022-10-22T04:05:44;19.67;;;15.37;;
3841;SDS011;1936;47.074;15.336;2022-10-22T04:07:47;17.97;;;14.40;;
3841;SDS011;1936;47.074;15.336;2022-10-22T04:09:50;23.93;;;14.60;;
3841;SDS011;1936;47.074;15.336;2022-10-22T04:11:53;20.50;;;13.50;;
3841;SDS011;1936;47.074;15.336;2022-10-22T04:13:58;20.30;;;13.70;;
3841;SDS011;1936;47.074;15.336;2022-10-22T04:16:05;20.30;;;14.50;;
3841;SDS011;1936;47.074;15.336;2022-10-22T04:18:09;15.30;;;13.70;;
3841;SDS011;1936;47.074;15.336;2022-10-22T04:20:12;16.93;;;12.80;;
3841;SDS011;1936;47.074;15.336;2022-10-22T04:22:16;14.37;;;12.90;;
3841;SDS011;1936;47.074;15.336;2022-10-22T04:24:19;17.00;;;14.40;;
3841;SDS011;1936;47.074;15.336;2022-10-22T04:26:22;21.40;;;15.70;;
3841;SDS011;1936;47.074;15.336;2022-10-22T04:28:26;19.20;;;15.17;;
3841;SDS011;1936;47.074;15.336;2022-10-22T04:30:31;19.97;;;14.97;;
3841;SDS011;1936;47.074;15.336;2022-10-22T04:32:34;15.60;;;13.57;;
3841;SDS011;1936;47.074;15.336;2022-10-22T04:34:38;18.27;;;13.40;;
3841;SDS011;1936;47.074;15.336;2022-10-22T04:36:41;21.80;;;14.80;;
3841;SDS011;1936;47.074;15.336;2022-10-22T04:38:45;20.13;;;12.47;;
3841;SDS011;1936;47.074;15.336;2022-10-22T04:40:49;19.55;;;13.15;;
3841;SDS011;1936;47.074;15.336;2022-10-22T04:42:52;21.20;;;14.93;;
3841;SDS011;1936;47.074;15.336;2022-10-22T04:44:56;16.30;;;12.37;;
3841;SDS011;1936;47.074;15.336;2022-10-22T04:47:00;16.60;;;11.80;;
3841;SDS011;1936;47.074;15.336;2022-10-22T04:49:04;21.80;;;12.73;;
3841;SDS011;1936;47.074;15.336;2022-10-22T04:51:08;22.17;;;12.90;;
3841;SDS011;1936;47.074;15.336;2022-10-22T04:53:13;21.70;;;15.10;;
3841;SDS011;1936;47.074;15.336;2022-10-22T04:55:17;18.40;;;13.82;;
3841;SDS011;1936;47.074;15.336;2022-10-22T04:57:20;19.63;;;12.70;;
3841;SDS011;1936;47.074;15.336;2022-10-22T04:59:23;20.90;;;14.50;;
3841;SDS011;1936;47.074;15.336;2022-10-22T05:01:27;16.03;;;13.70;;
3841;SDS011;1936;47.074;15.336;2022-10-22T05:03:32;21.33;;;12.63;;
3841;SDS011;1936;47.074;15.336;2022-10-22T05:05:36;29.17;;;14.07;;
3841;SDS011;1936;47.074;15.336;2022-10-22T05:07:39;18.47;;;12.87;;
3841;SDS011;1936;47.074;15.336;2022-10-22T05:09:43;23.70;;;14.93;;
3841;SDS011;1936;47.074;15.336;2022-10-22T05:11:47;18.17;;;15.13;;
3841;SDS011;1936;47.074;15.336;2022-10-22T05:13:52;18.23;;;12.97;;
3841;SDS011;1936;47.074;15.336;2022-10-22T05:15:59;16.07;;;13.07;;
3841;SDS011;1936;47.074;15.336;2022-10-22T05:18:03;25.83;;;14.63;;
3841;SDS011;1936;47.074;15.336;2022-10-22T05:20:09;18.60;;;13.93;;
3841;SDS011;1936;47.074;15.336;2022-10-22T05:22:12;21.33;;;14.60;;
3841;SDS011;1936;47.074;15.336;2022-10-22T05:24:16;39.10;;;22.67;;
3841;SDS011;1936;47.074;15.336;2022-10-22T05:26:20;41.60;;;22.40;;
3841;SDS011;1936;47.074;15.336;2022-10-22T05:28:23;38.80;;;24.57;;
3841;SDS011;1936;47.074;15.336;2022-10-22T05:30:27;33.77;;;21.37;;
3841;SDS011;1936;47.074;15.336;2022-10-22T05:32:30;34.33;;;21.30;;
3841;SDS011;1936;47.074;15.336;2022-10-22T05:34:35;28.53;;;18.20;;
3841;SDS011;1936;47.074;15.336;2022-10-22T05:36:40;26.27;;;19.60;;
3841;SDS011;1936;47.074;15.336;2022-10-22T05:38:44;25.20;;;19.60;;
3841;SDS011;1936;47.074;15.336;2022-10-22T05:40:47;23.87;;;18.83;;
3841;SDS011;1936;47.074;15.336;2022-10-22T05:43:00;29.40;;;19.80;;
3841;SDS011;1936;47.074;15.336;2022-10-22T05:45:03;34.73;;;20.80;;
3841;SDS011;1936;47.074;15.336;2022-10-22T05:47:08;52.20;;;32.00;;
3841;SDS011;1936;47.074;15.336;2022-10-22T05:49:12;67.90;;;36.77;;
3841;SDS011;1936;47.074;15.336;2022-10-22T05:51:17;44.47;;;25.33;;
3841;SDS011;1936;47.074;15.336;2022-10-22T05:53:22;56.80;;;31.10;;
3841;SDS011;1936;47.074;15.336;2022-10-22T05:55:25;60.42;;;32.55;;
3841;SDS011;1936;47.074;15.336;2022-10-22T05:57:29;47.20;;;28.53;;
3841;SDS011;1936;47.074;15.336;2022-10-22T05:59:32;49.20;;;27.70;;
3841;SDS011;1936;47.074;15.336;2022-10-22T06:01:35;40.40;;;23.40;;
3841;SDS011;1936;47.074;15.336;2022-10-22T06:03:40;34.43;;;20.00;;
3841;SDS011;1936;47.074;15.336;2022-10-22T06:05:44;35.70;;;20.90;;
3841;SDS011;1936;47.074;15.336;2022-10-22T06:07:48;25.53;;;20.47;;
3841;SDS011;1936;47.074;15.336;2022-10-22T06:09:53;40.00;;;22.70;;
3841;SDS011;1936;47.074;15.336;2022-10-22T06:11:56;31.20;;;19.70;;
3841;SDS011;1936;47.074;15.336;2022-10-22T06:14:00;30.73;;;19.80;;
3841;SDS011;1936;47.074;15.336;2022-10-22T06:16:03;28.07;;;18.57;;
3841;SDS011;1936;47.074;15.336;2022-10-22T06:18:07;34.40;;;22.87;;
3841;SDS011;1936;47.074;15.336;2022-10-22T06:20:11;42.50;;;26.53;;
3841;SDS011;1936;47.074;15.336;2022-10-22T06:22:14;50.90;;;34.07;;
3841;SDS011;1936;47.074;15.336;2022-10-22T06:24:18;48.53;;;32.77;;
3841;SDS011;1936;47.074;15.336;2022-10-22T06:26:24;58.97;;;36.37;;
3841;SDS011;1936;47.074;15.336;2022-10-22T06:28:27;51.93;;;36.43;;
3841;SDS011;1936;47.074;15.336;2022-10-22T06:30:31;58.70;;;36.40;;
3841;SDS011;1936;47.074;15.336;2022-10-22T06:32:34;53.13;;;36.10;;
3841;SDS011;1936;47.074;15.336;2022-10-22T06:34:38;49.60;;;33.53;;
3841;SDS011;1936;47.074;15.336;2022-10-22T06:36:41;41.90;;;28.50;;
3841;SDS011;1936;47.074;15.336;2022-10-22T06:38:46;52.10;;;31.50;;
3841;SDS011;1936;47.074;15.336;2022-10-22T06:40:49;38.63;;;27.80;;
3841;SDS011;1936;47.074;15.336;2022-10-22T06:42:54;45.90;;;30.33;;
3841;SDS011;1936;47.074;15.336;2022-10-22T06:44:57;44.23;;;31.33;;
3841;SDS011;1936;47.074;15.336;2022-10-22T06:47:02;34.47;;;25.70;;
3841;SDS011;1936;47.074;15.336;2022-10-22T06:49:06;39.40;;;24.33;;
3841;SDS011;1936;47.074;15.336;2022-10-22T06:51:13;31.57;;;17.87;;
3841;SDS011;1936;47.074;15.336;2022-10-22T06:53:16;25.03;;;18.57;;
3841;SDS011;1936;47.074;15.336;2022-10-22T06:55:20;27.57;;;18.93;;
3841;SDS011;1936;47.074;15.336;2022-10-22T06:57:24;27.23;;;21.27;;
3841;SDS011;1936;47.074;15.336;2022-10-22T06:59:29;24.43;;;19.57;;
3841;SDS011;1936;47.074;15.336;2022-10-22T07:01:33;23.83;;;17.77;;
3841;SDS011;1936;47.074;15.336;2022-10-22T07:03:37;26.60;;;19.03;;
3841;SDS011;1936;47.074;15.336;2022-10-22T07:05:41;24.83;;;19.33;;
3841;SDS011;1936;47.074;15.336;2022-10-22T07:07:44;24.63;;;18.10;;
3841;SDS011;1936;47.074;15.336;2022-10-22T07:09:48;31.23;;;19.00;;
3841;SDS011;1936;47.074;15.336;2022-10-22T07:11:51;34.33;;;18.93;;
3841;SDS011;1936;47.074;15.336;2022-10-22T07:13:55;20.27;;;17.47;;
3841;SDS011;1936;47.074;15.336;2022-10-22T07:16:00;21.83;;;14.93;;
3841;SDS011;1936;47.074;15.336;2022-10-22T07:18:04;19.63;;;14.80;;
3841;SDS011;1936;47.074;15.336;2022-10-22T07:20:07;24.20;;;15.07;;
3841;SDS011;1936;47.074;15.336;2022-10-22T07:22:12;16.63;;;14.33;;
3841;SDS011;1936;47.074;15.336;2022-10-22T07:24:15;19.90;;;14.00;;
3841;SDS011;1936;47.074;15.336;2022-10-22T07:26:19;14.53;;;12.50;;
3841;SDS011;1936;47.074;15.336;2022-10-22T07:28:22;14.57;;;12.33;;
3841;SDS011;1936;47.074;15.336;2022-10-22T07:30:26;15.53;;;11.97;;
3841;SDS011;1936;47.074;15.336;2022-10-22T07:32:31;15.37;;;12.30;;
3841;SDS011;1936;47.074;15.336;2022-10-22T07:34:34;17.37;;;13.20;;
3841;SDS011;1936;47.074;15.336;2022-10-22T07:36:40;14.47;;;11.67;;
3841;SDS011;1936;47.074;15.336;2022-10-22T07:38:44;14.93;;;12.77;;
3841;SDS011;1936;47.074;15.336;2022-10-22T07:40:49;15.60;;;12.03;;
3841;SDS011;1936;47.074;15.336;2022-10-22T07:42:53;18.57;;;13.13;;
3841;SDS011;1936;47.074;15.336;2022-10-22T07:44:57;15.53;;;11.97;;
3841;SDS011;1936;47.074;15.336;2022-10-22T07:47:00;16.93;;;11.37;;
3841;SDS011;1936;47.074;15.336;2022-10-22T07:49:05;22.70;;;13.57;;
3841;SDS011;1936;47.074;15.336;2022-10-22T07:51:09;29.43;;;14.53;;
3841;SDS011;1936;47.074;15.336;2022-10-22T07:53:13;43.20;;;17.53;;
3841;SDS011;1936;47.074;15.336;2022-10-22T07:55:17;31.27;;;19.00;;
3841;SDS011;1936;47.074;15.336;2022-10-22T07:57:21;26.80;;;16.20;;
3841;SDS011;1936;47.074;15.336;2022-10-22T07:59:24;17.47;;;13.77;;
3841;SDS011;1936;47.074;15.336;2022-10-22T08:01:27;13.03;;;10.33;;
3841;SDS011;1936;47.074;15.336;2022-10-22T08:03:31;16.67;;;9.63;;
3841;SDS011;1936;47.074;15.336;2022-10-22T08:05:36;19.93;;;10.57;;
3841;SDS011;1936;47.074;15.336;2022-10-22T08:07:40;12.27;;;9.50;;
3841;SDS011;1936;47.074;15.336;2022-10-22T08:09:43;13.73;;;9.20;;
3841;SDS011;1936;47.074;15.336;2022-10-22T08:11:47;10.80;;;7.90;;
3841;SDS011;1936;47.074;15.336;2022-10-22T08:13:50;12.43;;;9.00;;
3841;SDS011;1936;47.074;15.336;2022-10-22T08:15:53;16.73;;;8.90;;
3841;SDS011;1936;47.074;15.336;2022-10-22T08:17:58;17.90;;;9.67;;
3841;SDS011;1936;47.074;15.336;2022-10-22T08:20:01;15.93;;;8.57;;
3841;SDS011;1936;47.074;15.336;2022-10-22T08:22:06;11.90;;;7.90;;
3841;SDS011;1936;47.074;15.336;2022-10-22T08:24:09;9.07;;;7.53;;
3841;SDS011;1936;47.074;15.336;2022-10-22T08:26:13;15.33;;;9.67;;
3841;SDS011;1936;47.074;15.336;2022-10-22T08:28:16;17.03;;;9.20;;
3841;SDS011;1936;47.074;15.336;2022-10-22T08:30:22;10.67;;;8.80;;
3841;SDS011;1936;47.074;15.336;2022-10-22T08:32:28;15.47;;;7.40;;
3841;SDS011;1936;47.074;15.336;2022-10-22T08:34:31;11.23;;;7.20;;
3841;SDS011;1936;47.074;15.336;2022-10-22T08:36:34;10.83;;;8.77;;
3841;SDS011;1936;47.074;15.336;2022-10-22T08:38:39;18.97;;;9.37;;
3841;SDS011;1936;47.074;15.336;2022-10-22T08:40:43;19.53;;;8.63;;
3841;SDS011;1936;47.074;15.336;2022-10-22T08:43:11;11.90;;;9.43;;
3841;SDS011;1936;47.074;15.336;2022-10-22T08:45:17;9.43;;;8.47;;
3841;SDS011;1936;47.074;15.336;2022-10-22T08:49:54;11.33;;;8.03;;
3841;SDS011;1936;47.074;15.336;2022-10-22T08:51:57;11.77;;;9.97;;
3841;SDS011;1936;47.074;15.336;2022-10-22T08:54:12;20.50;;;9.80;;
3841;SDS011;1936;47.074;15.336;2022-10-22T08:56:23;17.50;;;9.27;;
3841;SDS011;1936;47.074;15.336;2022-10-22T08:58:28;15.90;;;10.80;;
3841;SDS011;1936;47.074;15.336;2022-10-22T09:00:35;15.60;;;10.87;;
3841;SDS011;1936;47.074;15.336;2022-10-22T09:02:42;13.50;;;9.43;;
3841;SDS011;1936;47.074;15.336;2022-10-22T09:04:53;16.83;;;10.70;;
3841;SDS011;1936;47.074;15.336;2022-10-22T09:07:01;14.77;;;9.40;;
3841;SDS011;1936;47.074;15.336;2022-10-22T09:09:09;15.47;;;10.83;;
3841;SDS011;1936;47.074;15.336;2022-10-22T09:11:19;10.40;;;7.73;;
3841;SDS011;1936;47.074;15.336;2022-10-22T09:13:24;10.53;;;8.63;;
3841;SDS011;1936;47.074;15.336;2022-10-22T09:15:28;12.63;;;8.27;;
3841;SDS011;1936;47.074;15.336;2022-10-22T09:17:33;12.30;;;8.73;;
3841;SDS011;1936;47.074;15.336;2022-10-22T09:19:48;12.03;;;8.93;;
3841;SDS011;1936;47.074;15.336;2022-10-22T09:22:03;14.13;;;8.70;;
3841;SDS011;1936;47.074;15.336;2022-10-22T09:24:18;15.90;;;9.63;;
3841;SDS011;1936;47.074;15.336;2022-10-22T09:26:34;8.70;;;7.80;;
3841;SDS011;1936;47.074;15.336;2022-10-22T09:28:39;9.73;;;8.63;;
3841;SDS011;1936;47.074;15.336;2022-10-22T09:30:42;11.33;;;8.07;;
3841;SDS011;1936;47.074;15.336;2022-10-22T09:32:46;9.60;;;7.10;;
3841;SDS011;1936;47.074;15.336;2022-10-22T09:34:53;13.23;;;8.60;;
3841;SDS011;1936;47.074;15.336;2022-10-22T09:36:58;10.30;;;8.20;;
3841;SDS011;1936;47.074;15.336;2022-10-22T09:39:03;10.63;;;7.77;;
3841;SDS011;1936;47.074;15.336;2022-10-22T09:41:24;10.77;;;7.07;;
3841;SDS011;1936;47.074;15.336;2022-10-22T09:43:30;9.70;;;6.93;;
3841;SDS011;1936;47.074;15.336;2022-10-22T09:45:34;14.03;;;7.60;;
3841;SDS011;1936;47.074;15.336;2022-10-22T09:47:37;11.40;;;7.10;;
3841;SDS011;1936;47.074;15.336;2022-10-22T09:50:05;10.70;;;7.40;;
3841;SDS011;1936;47.074;15.336;2022-10-22T09:52:17;8.67;;;6.60;;
3841;SDS011;1936;47.074;15.336;2022-10-22T09:54:36;7.87;;;7.07;;
3841;SDS011;1936;47.074;15.336;2022-10-22T09:56:48;15.03;;;7.70;;
3841;SDS011;1936;47.074;15.336;2022-10-22T09:58:55;13.73;;;9.10;;
3841;SDS011;1936;47.074;15.336;2022-10-22T10:00:59;9.63;;;7.57;;
3841;SDS011;1936;47.074;15.336;2022-10-22T10:03:03;14.83;;;8.10;;
3841;SDS011;1936;47.074;15.336;2022-10-22T10:05:07;10.30;;;7.43;;
3841;SDS011;1936;47.074;15.336;2022-10-22T10:07:19;15.73;;;7.80;;
3841;SDS011;1936;47.074;15.336;2022-10-22T10:09:23;14.50;;;8.20;;
3841;SDS011;1936;47.074;15.336;2022-10-22T10:11:28;7.20;;;6.30;;
3841;SDS011;1936;47.074;15.336;2022-10-22T10:13:40;16.87;;;7.60;;
3841;SDS011;1936;47.074;15.336;2022-10-22T10:15:47;8.40;;;6.93;;
3841;SDS011;1936;47.074;15.336;2022-10-22T10:17:57;8.13;;;7.33;;
3841;SDS011;1936;47.074;15.336;2022-10-22T10:20:12;9.77;;;7.70;;
3841;SDS011;1936;47.074;15.336;2022-10-22T10:22:22;10.20;;;8.17;;
3841;SDS011;1936;47.074;15.336;2022-10-22T10:24:39;9.97;;;8.00;;
3841;SDS011;1936;47.074;15.336;2022-10-22T10:26:55;9.87;;;7.47;;
3841;SDS011;1936;47.074;15.336;2022-10-22T10:31:31;13.50;;;6.00;;
3841;SDS011;1936;47.074;15.336;2022-10-22T10:33:43;9.77;;;7.00;;
3841;SDS011;1936;47.074;15.336;2022-10-22T10:35:51;8.20;;;7.10;;
3841;SDS011;1936;47.074;15.336;2022-10-22T10:38:04;8.30;;;7.50;;
3841;SDS011;1936;47.074;15.336;2022-10-22T10:40:22;12.20;;;6.90;;
3841;SDS011;1936;47.074;15.336;2022-10-22T10:42:31;12.90;;;8.10;;
3841;SDS011;1936;47.074;15.336;2022-10-22T10:44:43;9.80;;;8.10;;
3841;SDS011;1936;47.074;15.336;2022-10-22T10:46:57;13.17;;;8.23;;
3841;SDS011;1936;47.074;15.336;2022-10-22T10:49:02;11.80;;;7.60;;
3841;SDS011;1936;47.074;15.336;2022-10-22T10:51:14;10.67;;;6.70;;
3841;SDS011;1936;47.074;15.336;2022-10-22T10:53:41;9.10;;;6.33;;
3841;SDS011;1936;47.074;15.336;2022-10-22T10:55:57;10.00;;;6.83;;
3841;SDS011;1936;47.074;15.336;2022-10-22T10:58:10;11.50;;;6.10;;
3841;SDS011;1936;47.074;15.336;2022-10-22T11:00:24;10.73;;;7.60;;
3841;SDS011;1936;47.074;15.336;2022-10-22T11:02:33;8.47;;;7.23;;
3841;SDS011;1936;47.074;15.336;2022-10-22T11:04:51;12.70;;;7.90;;
3841;SDS011;1936;47.074;15.336;2022-10-22T11:07:08;10.03;;;7.80;;
3841;SDS011;1936;47.074;15.336;2022-10-22T11:09:34;12.43;;;9.27;;
3841;SDS011;1936;47.074;15.336;2022-10-22T11:11:42;13.60;;;7.17;;
3841;SDS011;1936;47.074;15.336;2022-10-22T11:13:50;9.83;;;6.50;;
3841;SDS011;1936;47.074;15.336;2022-10-22T11:16:02;14.00;;;7.13;;
3841;SDS011;1936;47.074;15.336;2022-10-22T11:18:13;9.00;;;8.10;;
3841;SDS011;1936;47.074;15.336;2022-10-22T11:20:21;14.80;;;8.20;;
3841;SDS011;1936;47.074;15.336;2022-10-22T11:22:27;11.33;;;8.00;;
3841;SDS011;1936;47.074;15.336;2022-10-22T11:24:34;13.60;;;8.20;;
3841;SDS011;1936;47.074;15.336;2022-10-22T11:26:43;12.03;;;8.40;;
3841;SDS011;1936;47.074;15.336;2022-10-22T11:28:49;10.27;;;7.03;;
3841;SDS011;1936;47.074;15.336;2022-10-22T11:30:57;9.43;;;5.80;;
3841;SDS011;1936;47.074;15.336;2022-10-22T11:33:04;6.50;;;5.37;;
3841;SDS011;1936;47.074;15.336;2022-10-22T11:35:10;7.10;;;5.90;;
3841;SDS011;1936;47.074;15.336;2022-10-22T11:37:15;12.97;;;7.77;;
3841;SDS011;1936;47.074;15.336;2022-10-22T11:39:29;9.67;;;7.50;;
3841;SDS011;1936;47.074;15.336;2022-10-22T11:41:34;6.57;;;5.90;;
3841;SDS011;1936;47.074;15.336;2022-10-22T11:43:52;6.97;;;5.93;;
3841;SDS011;1936;47.074;15.336;2022-10-22T11:46:07;10.57;;;6.70;;
3841;SDS011;1936;47.074;15.336;2022-10-22T11:48:33;14.40;;;8.30;;
3841;SDS011;1936;47.074;15.336;2022-10-22T11:50:47;12.50;;;8.27;;
3841;SDS011;1936;47.074;15.336;2022-10-22T11:52:58;8.57;;;7.77;;
3841;SDS011;1936;47.074;15.336;2022-10-22T11:55:26;10.87;;;8.57;;
3841;SDS011;1936;47.074;15.336;2022-10-22T11:57:34;10.77;;;7.80;;
3841;SDS011;1936;47.074;15.336;2022-10-22T11:59:43;11.83;;;7.80;;
3841;SDS011;1936;47.074;15.336;2022-10-22T12:01:47;10.27;;;7.60;;
3841;SDS011;1936;47.074;15.336;2022-10-22T12:09:05;10.63;;;7.13;;
3841;SDS011;1936;47.074;15.336;2022-10-22T12:11:16;8.97;;;8.07;;
3841;SDS011;1936;47.074;15.336;2022-10-22T12:13:24;11.33;;;8.20;;
3841;SDS011;1936;47.074;15.336;2022-10-22T12:15:28;10.93;;;7.40;;
3841;SDS011;1936;47.074;15.336;2022-10-22T12:17:32;11.70;;;9.77;;
3841;SDS011;1936;47.074;15.336;2022-10-22T12:19:38;11.87;;;10.67;;
3841;SDS011;1936;47.074;15.336;2022-10-22T12:21:44;14.80;;;11.90;;
3841;SDS011;1936;47.074;15.336;2022-10-22T12:23:50;12.63;;;10.63;;
3841;SDS011;1936;47.074;15.336;2022-10-22T12:25:53;14.90;;;11.63;;
3841;SDS011;1936;47.074;15.336;2022-10-22T12:27:58;13.50;;;12.13;;
3841;SDS011;1936;47.074;15.336;2022-10-22T12:30:02;12.67;;;11.10;;
3841;SDS011;1936;47.074;15.336;2022-10-22T12:32:19;12.53;;;11.33;;
3841;SDS011;1936;47.074;15.336;2022-10-22T12:34:23;12.33;;;10.10;;
3841;SDS011;1936;47.074;15.336;2022-10-22T12:36:28;20.07;;;12.07;;
3841;SDS011;1936;47.074;15.336;2022-10-22T12:38:35;18.70;;;12.07;;
3841;SDS011;1936;47.074;15.336;2022-10-22T12:40:40;11.60;;;9.60;;
3841;SDS011;1936;47.074;15.336;2022-10-22T12:42:49;11.50;;;10.17;;
3841;SDS011;1936;47.074;15.336;2022-10-22T12:44:54;8.77;;;7.77;;
3841;SDS011;1936;47.074;15.336;2022-10-22T12:46:58;8.07;;;6.73;;
3841;SDS011;1936;47.074;15.336;2022-10-22T12:49:02;11.40;;;6.43;;
3841;SDS011;1936;47.074;15.336;2022-10-22T12:51:12;8.87;;;6.60;;